Time;durP1;ratioP1;P1;durP2;ratioP2;P2;SDS_P1;SDS_P2;PMS_P1;PMS_P2;Temp;Humidity;BMP_temperature;BMP_pressure;BME280_temperature;BME280_humidity;BME280_pressure;Samples;Min_cycle;Max_cycle;Signal;HPM_P1;HPM_P2
2023/08/09 00:00:07;;;;;;;2.40;2.20;;;;;;;13.86;100.00;96822.97;4981117;28;20212;-63
2023/08/09 00:02:35;;;;;;;2.60;2.40;;;;;;;13.85;100.00;96822.16;4974145;28;20202;-63
2023/08/09 00:05:05;;;;;;;2.47;2.37;;;;;;;13.77;100.00;96821.59;4979056;28;20208;-63
2023/08/09 00:07:32;;;;;;;2.10;2.00;;;;;;;13.84;100.00;96820.53;4975548;28;20307;-60
2023/08/09 00:10:00;;;;;;;2.10;1.90;;;;;;;13.78;100.00;96813.38;4977533;28;20218;-62
2023/08/09 00:12:28;;;;;;;1.80;1.80;;;;;;;13.79;100.00;96809.69;4975928;28;20209;-66
2023/08/09 00:14:55;;;;;;;2.47;2.30;;;;;;;13.81;100.00;96804.16;4980697;28;20276;-61
2023/08/09 00:17:23;;;;;;;2.67;2.47;;;;;;;13.77;100.00;96801.09;4974950;28;20432;-66
2023/08/09 00:19:51;;;;;;;2.47;2.20;;;;;;;13.78;100.00;96805.38;4980363;28;20202;-63
2023/08/09 00:22:20;;;;;;;3.90;2.20;;;;;;;13.72;100.00;96806.25;4973568;28;20292;-62
2023/08/09 00:24:48;;;;;;;2.50;2.30;;;;;;;13.76;100.00;96807.44;4981490;28;20300;-64
2023/08/09 00:27:16;;;;;;;2.40;2.20;;;;;;;13.77;100.00;96808.28;4974703;28;20218;-60
2023/08/09 00:29:43;;;;;;;2.90;2.70;;;;;;;13.73;100.00;96815.84;4978365;28;20201;-62
2023/08/09 00:32:11;;;;;;;3.77;2.80;;;;;;;13.70;100.00;96822.44;4848558;28;20232;-63
2023/08/09 00:34:39;;;;;;;3.00;2.63;;;;;;;13.70;100.00;96817.13;4979463;28;20316;-62
2023/08/09 00:37:06;;;;;;;2.53;2.43;;;;;;;13.75;100.00;96821.78;4976770;28;20309;-63
2023/08/09 00:39:35;;;;;;;2.80;2.60;;;;;;;13.75;100.00;96819.13;4980241;28;20252;-63
2023/08/09 00:42:03;;;;;;;2.53;2.30;;;;;;;13.74;100.00;96818.31;4974171;28;20233;-62
2023/08/09 00:44:31;;;;;;;2.90;2.70;;;;;;;13.72;100.00;96817.72;4974886;28;20306;-60
2023/08/09 00:46:58;;;;;;;4.67;2.73;;;;;;;13.72;100.00;96816.88;4981105;28;20308;-61
2023/08/09 00:49:27;;;;;;;3.73;2.70;;;;;;;13.65;100.00;96798.31;4979918;28;20228;-62
2023/08/09 00:51:54;;;;;;;2.93;2.73;;;;;;;13.70;100.00;96824.28;4977298;28;20288;-62
2023/08/09 00:54:23;;;;;;;3.03;2.53;;;;;;;13.71;100.00;96825.91;4981053;28;20225;-63
2023/08/09 00:56:52;;;;;;;2.83;2.63;;;;;;;13.56;100.00;96803.06;4978900;28;20225;-63
2023/08/09 00:59:20;;;;;;;3.37;3.10;;;;;;;13.72;100.00;96831.03;4980055;28;20298;-62
2023/08/09 01:01:47;;;;;;;3.10;2.90;;;;;;;13.72;100.00;96839.03;4979006;28;20202;-62
2023/08/09 01:04:15;;;;;;;3.37;2.97;;;;;;;13.70;100.00;96833.09;4982340;28;20236;-62
2023/08/09 01:06:47;;;;;;;5.70;3.30;;;;;;;13.67;100.00;96846.00;4848076;28;20229;-62
2023/08/09 01:09:18;;;;;;;3.83;3.23;;;;;;;13.56;100.00;96842.97;4956745;28;20260;-66
2023/08/09 01:11:55;;;;;;;3.93;3.07;;;;;;;13.56;100.00;96848.31;4947653;28;22069;-62
2023/08/09 01:14:24;;;;;;;3.47;2.93;;;;;;;13.51;100.00;96840.13;4982917;28;20223;-65
2023/08/09 01:16:53;;;;;;;3.40;3.10;;;;;;;13.44;100.00;96837.50;4980786;28;20420;-61
2023/08/09 01:19:30;;;;;;;5.50;3.17;;;;;;;13.25;100.00;96836.50;4977248;28;21221;-64
2023/08/09 01:22:03;;;;;;;3.40;3.10;;;;;;;13.27;100.00;96834.44;4979100;28;20603;-66
2023/08/09 01:24:32;;;;;;;3.20;2.90;;;;;;;13.22;100.00;96833.44;4977211;28;20283;-63
2023/08/09 01:27:00;;;;;;;3.20;3.00;;;;;;;13.25;100.00;96831.19;4981035;28;20328;-64
2023/08/09 01:29:28;;;;;;;3.00;2.80;;;;;;;13.31;100.00;96833.00;4977570;28;20203;-63
2023/08/09 01:31:55;;;;;;;3.03;2.73;;;;;;;13.34;100.00;96823.78;4980443;28;20202;-63
2023/08/09 01:34:23;;;;;;;3.70;3.13;;;;;;;13.27;100.00;96826.47;4979892;28;20885;-62
2023/08/09 01:36:51;;;;;;;5.17;3.40;;;;;;;13.23;100.00;96825.25;4981462;28;20197;-63
2023/08/09 01:39:24;;;;;;;3.80;3.50;;;;;;;13.16;100.00;96832.44;4917427;28;21245;-66
2023/08/09 01:41:53;;;;;;;4.97;3.60;;;;;;;13.20;100.00;96824.84;4932842;28;20749;-63
2023/08/09 01:44:23;;;;;;;3.40;3.20;;;;;;;13.17;100.00;96826.09;4977961;28;20817;-63
2023/08/09 01:46:51;;;;;;;3.77;3.47;;;;;;;13.08;100.00;96822.03;4978814;28;20768;-63
2023/08/09 01:49:22;;;;;;;3.10;2.90;;;;;;;13.09;100.00;96823.69;4975146;28;20206;-64
2023/08/09 01:51:51;;;;;;;3.60;3.30;;;;;;;13.07;100.00;96829.19;4979266;28;20201;-64
2023/08/09 01:54:19;;;;;;;3.37;3.07;;;;;;;13.10;100.00;96820.78;4974746;28;20253;-65
2023/08/09 01:56:46;;;;;;;4.10;3.80;;;;;;;13.08;100.00;96816.72;4978610;28;20202;-62
2023/08/09 01:59:16;;;;;;;3.33;3.13;;;;;;;13.07;100.00;96815.91;4981287;28;20205;-62
2023/08/09 02:01:43;;;;;;;3.70;3.40;;;;;;;13.03;100.00;96815.47;4976744;28;20264;-63
2023/08/09 02:04:11;;;;;;;3.40;3.20;;;;;;;13.03;100.00;96804.84;4983452;28;20308;-63
2023/08/09 02:06:39;;;;;;;6.23;3.30;;;;;;;13.08;100.00;96811.41;4979978;28;20206;-61
2023/08/09 02:09:07;;;;;;;4.00;3.60;;;;;;;12.74;100.00;96768.94;4953797;28;20304;-68
2023/08/09 02:11:35;;;;;;;3.40;3.20;;;;;;;13.03;100.00;96812.81;4886710;28;20359;-61
2023/08/09 02:14:03;;;;;;;3.47;3.27;;;;;;;13.08;100.00;96804.22;4981157;28;20658;-64
2023/08/09 02:16:32;;;;;;;3.30;3.10;;;;;;;13.06;100.00;96803.63;4978249;28;20656;-63
2023/08/09 02:19:01;;;;;;;3.07;2.93;;;;;;;13.06;100.00;96800.97;4983666;28;20206;-63
2023/08/09 02:21:28;;;;;;;3.50;3.20;;;;;;;13.10;100.00;96796.06;4971560;28;20300;-63
2023/08/09 02:23:56;;;;;;;3.37;3.10;;;;;;;13.08;100.00;96798.09;4984356;28;20296;-63
2023/08/09 02:26:24;;;;;;;3.47;3.27;;;;;;;13.12;100.00;96792.13;4989438;28;20205;-65
2023/08/09 02:28:51;;;;;;;3.67;3.43;;;;;;;13.18;100.00;96793.94;4988327;28;20261;-62
2023/08/09 02:31:19;;;;;;;3.60;3.30;;;;;;;13.10;100.00;96791.53;4977333;28;20284;-62
2023/08/09 02:33:48;;;;;;;3.10;2.80;;;;;;;13.08;100.00;96792.78;4980739;28;20229;-62
2023/08/09 02:36:16;;;;;;;3.80;3.60;;;;;;;13.02;100.00;96792.56;4977029;28;20205;-63
2023/08/09 02:38:43;;;;;;;5.77;3.33;;;;;;;12.97;100.00;96787.06;4975699;28;20225;-65
2023/08/09 02:41:11;;;;;;;3.83;3.53;;;;;;;12.89;100.00;96795.28;4980088;28;20201;-63
2023/08/09 02:43:39;;;;;;;4.70;3.40;;;;;;;12.83;100.00;96791.59;4977218;28;20217;-63
2023/08/09 02:46:07;;;;;;;4.43;4.03;;;;;;;12.78;100.00;96790.59;4844304;28;20218;-62
2023/08/09 02:48:35;;;;;;;7.07;3.80;;;;;;;12.78;100.00;96798.59;4974196;28;20242;-63
2023/08/09 02:51:04;;;;;;;3.73;3.43;;;;;;;12.74;100.00;96801.66;4972067;28;20260;-60
2023/08/09 02:53:34;;;;;;;4.27;3.83;;;;;;;12.81;100.00;96792.84;4976094;28;20319;-62
2023/08/09 02:56:02;;;;;;;3.77;3.47;;;;;;;12.80;100.00;96794.69;4979957;28;20296;-63
2023/08/09 02:58:29;;;;;;;4.37;3.97;;;;;;;12.69;100.00;96788.19;4976344;28;20212;-62
2023/08/09 03:00:57;;;;;;;4.67;3.80;;;;;;;12.61;100.00;96791.03;4972142;28;20214;-63
2023/08/09 03:03:24;;;;;;;3.53;3.33;;;;;;;12.59;100.00;96790.41;4975362;28;20327;-63
2023/08/09 03:05:52;;;;;;;4.40;4.00;;;;;;;12.67;100.00;96781.41;4973021;28;20585;-65
2023/08/09 03:08:21;;;;;;;4.17;3.87;;;;;;;12.62;100.00;96778.56;4975882;28;20217;-62
2023/08/09 03:10:49;;;;;;;5.33;3.70;;;;;;;12.38;100.00;96744.47;4972269;28;20209;-62
2023/08/09 03:13:17;;;;;;;4.40;4.00;;;;;;;12.56;100.00;96782.84;4980798;28;20409;-63
2023/08/09 03:15:45;;;;;;;4.50;3.73;;;;;;;12.49;100.00;96782.84;4972863;28;20221;-63
2023/08/09 03:18:12;;;;;;;4.20;4.00;;;;;;;12.52;100.00;96793.09;4978004;28;20880;-65
2023/08/09 03:20:40;;;;;;;5.17;4.73;;;;;;;12.39;100.00;96787.78;4839532;28;20221;-62
2023/08/09 03:23:09;;;;;;;3.70;3.50;;;;;;;12.40;100.00;96781.44;4979757;28;20395;-63
2023/08/09 03:25:38;;;;;;;4.03;3.70;;;;;;;12.37;100.00;96781.84;4975052;28;20272;-63
2023/08/09 03:28:06;;;;;;;5.13;4.70;;;;;;;12.44;100.00;96788.81;4978988;28;20225;-62
2023/08/09 03:30:33;;;;;;;4.37;3.97;;;;;;;12.45;100.00;96787.78;4976623;28;20757;-64
2023/08/09 03:33:01;;;;;;;4.67;4.33;;;;;;;12.42;100.00;96792.69;4979377;28;20949;-63
2023/08/09 03:35:29;;;;;;;4.73;4.30;;;;;;;12.47;100.00;96803.50;4975568;28;20209;-65
2023/08/09 03:37:57;;;;;;;4.43;4.03;;;;;;;12.49;100.00;96805.97;4977547;28;20225;-64
2023/08/09 03:40:24;;;;;;;4.93;4.53;;;;;;;12.50;100.00;96802.28;4911279;28;20247;-64
2023/08/09 03:42:54;;;;;;;8.20;4.00;;;;;;;12.41;100.00;96791.88;4980434;28;20905;-63
2023/08/09 03:45:22;;;;;;;5.00;4.60;;;;;;;12.49;100.00;96804.13;4975511;28;20282;-62
2023/08/09 03:47:49;;;;;;;4.77;4.47;;;;;;;12.40;100.00;96802.69;4978546;28;20202;-62
2023/08/09 03:50:17;;;;;;;4.60;4.27;;;;;;;12.48;100.00;96804.34;4940638;28;20213;-63
2023/08/09 03:52:45;;;;;;;5.57;4.40;;;;;;;12.48;100.00;96801.69;4976539;28;20312;-64
2023/08/09 03:55:12;;;;;;;4.63;4.33;;;;;;;12.55;100.00;96816.59;4840142;28;20221;-63
2023/08/09 03:57:40;;;;;;;4.73;4.23;;;;;;;12.55;100.00;96815.78;4969990;28;20315;-64
2023/08/09 04:00:17;;;;;;;4.80;4.47;;;;;;;12.58;100.00;96816.19;4903801;28;20288;-66
2023/08/09 04:02:45;;;;;;;4.23;3.93;;;;;;;12.41;100.00;96793.69;4976392;28;20759;-64
2023/08/09 04:05:14;;;;;;;4.87;4.43;;;;;;;12.60;100.00;96829.25;4973299;28;20206;-65
2023/08/09 04:07:42;;;;;;;4.30;4.00;;;;;;;12.63;100.00;96828.03;4911745;28;20218;-63
2023/08/09 04:10:10;;;;;;;5.43;4.60;;;;;;;12.57;100.00;96819.88;4977599;28;20309;-65
2023/08/09 04:12:38;;;;;;;4.80;4.40;;;;;;;12.63;100.00;96809.44;4922853;28;20768;-65
2023/08/09 04:15:07;;;;;;;4.60;4.20;;;;;;;12.58;100.00;96818.84;4978904;28;20209;-65
2023/08/09 04:17:36;;;;;;;4.80;4.40;;;;;;;12.54;100.00;96819.47;4980482;28;20209;-66
2023/08/09 04:20:08;;;;;;;5.97;5.40;;;;;;;12.56;100.00;96820.06;4982707;28;21033;-64
2023/08/09 04:22:36;;;;;;;5.27;4.70;;;;;;;12.56;100.00;96822.72;4976815;28;20228;-66
2023/08/09 04:25:05;;;;;;;5.23;4.73;;;;;;;12.45;100.00;96811.69;4984373;28;20232;-65
2023/08/09 04:27:38;;;;;;;4.90;4.60;;;;;;;12.52;100.00;96817.03;4871030;28;20657;-66
2023/08/09 04:30:09;;;;;;;5.33;4.93;;;;;;;12.48;100.00;96828.25;4979651;28;20236;-63
2023/08/09 04:32:38;;;;;;;4.70;4.37;;;;;;;12.48;100.00;96837.03;4976621;28;20245;-65
2023/08/09 04:35:08;;;;;;;5.40;4.90;;;;;;;12.51;100.00;96820.69;4980311;28;20257;-64
2023/08/09 04:37:35;;;;;;;6.83;5.00;;;;;;;12.52;100.00;96814.38;4973670;28;20219;-65
2023/08/09 04:40:07;;;;;;;5.83;5.10;;;;;;;12.48;100.00;96818.41;4979565;28;20721;-64
2023/08/09 04:42:36;;;;;;;5.20;4.70;;;;;;;12.52;100.00;96824.16;4931434;28;20866;-66
2023/08/09 04:45:04;;;;;;;4.80;4.40;;;;;;;12.52;100.00;96830.31;4977798;28;20225;-63
2023/08/09 04:47:32;;;;;;;4.97;4.57;;;;;;;12.52;100.00;96834.78;4921427;28;20206;-64
2023/08/09 04:50:01;;;;;;;5.43;5.03;;;;;;;12.49;100.00;96824.56;4969779;28;20320;-64
2023/08/09 04:52:29;;;;;;;4.80;4.40;;;;;;;12.58;100.00;96832.13;4977855;28;20823;-66
2023/08/09 04:54:56;;;;;;;6.87;4.47;;;;;;;12.51;100.00;96828.66;4979166;28;20205;-62
2023/08/09 04:57:25;;;;;;;5.10;4.70;;;;;;;12.54;100.00;96825.59;4927557;28;20379;-66
2023/08/09 04:59:53;;;;;;;5.50;5.00;;;;;;;12.56;100.00;96825.38;4948489;28;20209;-65
2023/08/09 05:02:20;;;;;;;5.60;4.93;;;;;;;12.58;100.00;96836.63;4979258;28;20299;-65
2023/08/09 05:04:48;;;;;;;5.43;4.93;;;;;;;12.60;100.00;96831.91;4974389;28;20201;-65
2023/08/09 05:07:17;;;;;;;5.60;5.10;;;;;;;12.63;100.00;96833.34;4978697;28;21690;-65
2023/08/09 05:09:44;;;;;;;4.70;4.27;;;;;;;12.60;100.00;96829.25;4975338;28;20741;-62
2023/08/09 05:12:12;;;;;;;4.33;3.93;;;;;;;12.62;100.00;96831.72;4962016;28;20252;-68
2023/08/09 05:14:40;;;;;;;5.40;5.00;;;;;;;12.56;100.00;96833.34;4938860;28;20228;-66
2023/08/09 05:17:08;;;;;;;5.03;4.63;;;;;;;12.58;100.00;96837.44;4979196;28;20268;-64
2023/08/09 05:19:36;;;;;;;5.93;4.60;;;;;;;12.59;100.00;96839.09;4976181;28;20209;-65
2023/08/09 05:22:03;;;;;;;5.50;5.00;;;;;;;12.50;100.00;96827.03;4981132;28;20700;-65
2023/08/09 05:24:32;;;;;;;5.27;4.83;;;;;;;12.63;100.00;96826.19;4979224;28;20304;-66
2023/08/09 05:27:00;;;;;;;4.53;4.23;;;;;;;12.61;100.00;96833.56;4976932;28;20215;-63
2023/08/09 05:29:28;;;;;;;5.70;5.03;;;;;;;12.68;100.00;96833.56;4978275;28;20619;-64
2023/08/09 05:31:57;;;;;;;4.30;4.00;;;;;;;12.66;100.00;96830.28;4976111;28;20240;-67
2023/08/09 05:34:25;;;;;;;4.63;4.13;;;;;;;12.69;100.00;96821.91;4891047;28;20234;-63
2023/08/09 05:36:53;;;;;;;4.70;4.27;;;;;;;12.71;100.00;96835.81;4978430;28;20320;-64
2023/08/09 05:39:22;;;;;;;4.17;3.87;;;;;;;12.76;100.00;96833.34;4973894;28;20712;-64
2023/08/09 05:41:51;;;;;;;4.60;4.30;;;;;;;12.72;100.00;96832.13;4914687;28;20290;-66
2023/08/09 05:44:18;;;;;;;4.83;4.43;;;;;;;12.73;100.00;96831.09;4979128;28;20277;-63
2023/08/09 05:46:46;;;;;;;4.73;4.37;;;;;;;12.69;100.00;96832.53;4925791;28;20835;-68
2023/08/09 05:49:14;;;;;;;4.40;4.10;;;;;;;12.74;100.00;96838.03;4974113;28;20257;-66
2023/08/09 05:51:42;;;;;;;5.17;4.73;;;;;;;12.80;100.00;96833.75;4926643;28;22195;-67
2023/08/09 05:54:10;;;;;;;4.97;4.47;;;;;;;12.83;100.00;96841.31;4969323;28;20340;-64
2023/08/09 05:56:38;;;;;;;4.63;4.27;;;;;;;12.77;100.00;96831.50;4975717;28;20229;-66
2023/08/09 05:59:07;;;;;;;5.07;4.57;;;;;;;12.79;100.00;96832.13;4976671;28;20317;-64
2023/08/09 06:01:34;;;;;;;4.63;4.20;;;;;;;12.74;100.00;96836.22;4974400;28;20316;-65
2023/08/09 06:04:03;;;;;;;4.87;4.57;;;;;;;12.69;100.00;96836.03;4977792;28;20230;-65
2023/08/09 06:06:32;;;;;;;4.93;4.53;;;;;;;12.77;100.00;96834.16;4927466;28;21496;-65
2023/08/09 06:09:00;;;;;;;4.97;4.40;;;;;;;12.81;100.00;96830.06;4944495;28;20202;-65
2023/08/09 06:11:28;;;;;;;4.37;4.07;;;;;;;12.82;100.00;96837.81;4978133;28;20317;-65
2023/08/09 06:13:55;;;;;;;4.97;4.53;;;;;;;12.85;100.00;96826.78;4975874;28;20316;-64
2023/08/09 06:16:24;;;;;;;5.13;4.80;;;;;;;12.91;100.00;96827.78;4909641;28;20296;-65
2023/08/09 06:18:52;;;;;;;4.43;4.13;;;;;;;12.86;100.00;96833.72;4982057;28;20206;-64
2023/08/09 06:21:20;;;;;;;5.17;4.67;;;;;;;12.97;100.00;96829.63;4919267;28;20390;-64
2023/08/09 06:23:47;;;;;;;4.60;4.00;;;;;;;12.97;100.00;96836.78;4975887;28;20237;-65
2023/08/09 06:26:15;;;;;;;6.27;4.13;;;;;;;12.87;100.00;96839.88;4912444;28;20301;-65
2023/08/09 06:28:43;;;;;;;4.47;4.20;;;;;;;12.86;100.00;96848.88;4979754;28;20253;-63
2023/08/09 06:31:10;;;;;;;4.90;4.60;;;;;;;12.84;100.00;96850.91;4968237;28;20704;-64
2023/08/09 06:33:42;;;;;;;4.73;4.37;;;;;;;12.85;100.00;96852.56;4982843;28;20244;-64
2023/08/09 06:36:10;;;;;;;4.60;4.30;;;;;;;12.84;100.00;96841.09;4975939;28;20213;-64
2023/08/09 06:38:38;;;;;;;4.57;4.27;;;;;;;12.83;100.00;96849.28;4972117;28;20303;-64
2023/08/09 06:41:05;;;;;;;4.87;4.33;;;;;;;12.91;100.00;96850.91;4841694;28;20337;-64
2023/08/09 06:43:33;;;;;;;4.97;4.63;;;;;;;12.90;100.00;96836.00;4977427;28;20233;-64
2023/08/09 06:46:01;;;;;;;4.93;4.63;;;;;;;12.91;100.00;96846.41;4971707;28;20209;-64
2023/08/09 06:48:29;;;;;;;5.43;4.93;;;;;;;12.95;100.00;96841.50;4976380;28;20205;-64
2023/08/09 06:51:00;;;;;;;5.63;5.20;;;;;;;13.07;100.00;96833.69;4922731;28;20225;-65
2023/08/09 06:53:28;;;;;;;6.13;4.77;;;;;;;13.36;100.00;96843.03;4977841;28;20262;-63
2023/08/09 06:55:55;;;;;;;5.20;4.70;;;;;;;13.41;100.00;96837.06;4915970;28;20299;-64
2023/08/09 06:58:24;;;;;;;7.17;4.70;;;;;;;13.22;100.00;96831.59;4981504;28;20297;-64
2023/08/09 07:00:53;;;;;;;4.27;3.87;;;;;;;13.40;100.00;96828.28;4971671;28;20625;-62
2023/08/09 07:03:21;;;;;;;4.77;4.37;;;;;;;13.41;100.00;96827.25;4979314;28;20249;-65
2023/08/09 07:05:49;;;;;;;4.37;4.07;;;;;;;13.41;100.00;96821.91;4920418;28;20210;-63
2023/08/09 07:08:17;;;;;;;4.53;4.23;;;;;;;13.53;100.00;96829.25;4978316;28;20288;-64
2023/08/09 07:10:45;;;;;;;5.40;4.37;;;;;;;13.55;100.00;96836.03;4843448;28;20229;-65
2023/08/09 07:13:13;;;;;;;4.40;3.93;;;;;;;13.46;100.00;96832.78;4978145;28;20303;-64
2023/08/09 07:15:40;;;;;;;4.77;4.37;;;;;;;13.40;100.00;96830.09;4972154;28;20364;-64
2023/08/09 07:18:09;;;;;;;4.83;4.43;;;;;;;13.44;100.00;96834.84;4978326;28;20301;-64
2023/08/09 07:20:36;;;;;;;4.30;4.03;;;;;;;13.59;100.00;96829.25;4973894;28;20219;-64
2023/08/09 07:23:04;;;;;;;4.80;4.47;;;;;;;13.81;100.00;96846.75;4978184;28;20957;-65
2023/08/09 07:25:33;;;;;;;4.10;3.77;;;;;;;13.86;100.00;96837.09;4923190;28;21282;-64
2023/08/09 07:28:01;;;;;;;4.63;4.23;;;;;;;13.98;100.00;96831.91;4976957;28;20213;-62
2023/08/09 07:30:29;;;;;;;3.90;3.70;;;;;;;14.14;100.00;96830.56;4922340;28;20239;-64
2023/08/09 07:32:56;;;;;;;4.60;4.30;;;;;;;14.30;100.00;96834.56;4976528;28;20830;-64
2023/08/09 07:35:24;;;;;;;4.10;3.80;;;;;;;14.45;100.00;96818.25;4983892;28;20202;-64
2023/08/09 07:37:52;;;;;;;4.23;3.93;;;;;;;14.50;100.00;96819.44;4988089;28;20228;-67
2023/08/09 07:40:20;;;;;;;4.50;4.10;;;;;;;14.64;100.00;96820.97;4979519;28;20465;-65
2023/08/09 07:42:49;;;;;;;3.97;3.67;;;;;;;14.73;100.00;96814.34;4978505;28;20321;-67
2023/08/09 07:45:17;;;;;;;4.77;4.43;;;;;;;14.73;100.00;96814.34;4893498;28;20338;-65
2023/08/09 07:47:44;;;;;;;3.73;3.53;;;;;;;14.67;100.00;96825.03;4976259;28;20210;-63
2023/08/09 07:50:12;;;;;;;3.60;3.30;;;;;;;14.84;100.00;96822.66;4913443;28;20259;-64
2023/08/09 07:52:40;;;;;;;3.90;3.60;;;;;;;14.79;100.00;96831.34;4979009;28;20326;-63
2023/08/09 07:55:08;;;;;;;4.10;3.80;;;;;;;14.72;100.00;96820.72;4973014;28;20213;-65
2023/08/09 07:57:36;;;;;;;3.37;3.17;;;;;;;14.83;100.00;96831.69;4977417;28;20218;-64
2023/08/09 08:00:11;;;;;;;3.80;3.57;;;;;;;15.03;100.00;96832.31;4919560;28;20939;-61
2023/08/09 08:02:42;;;;;;;3.77;3.47;;;;;;;15.01;100.00;96846.91;4974393;28;20212;-63
2023/08/09 08:05:11;;;;;;;3.83;3.53;;;;;;;14.88;100.00;96845.19;4916570;28;20208;-62
2023/08/09 08:07:39;;;;;;;3.43;3.23;;;;;;;15.14;100.00;96854.75;4970845;28;20223;-62
2023/08/09 08:10:08;;;;;;;4.10;3.77;;;;;;;15.28;100.00;96858.09;4972835;28;20304;-64
2023/08/09 08:12:36;;;;;;;3.60;3.30;;;;;;;15.05;100.00;96846.25;4975647;28;20206;-64
2023/08/09 08:15:04;;;;;;;3.63;3.33;;;;;;;15.18;100.00;96855.16;4966772;28;20748;-62
2023/08/09 08:17:33;;;;;;;4.50;3.47;;;;;;;15.07;100.00;96863.88;4975437;28;20241;-63
2023/08/09 08:20:03;;;;;;;3.87;3.57;;;;;;;15.16;100.00;96860.72;4887161;28;21417;-67
2023/08/09 08:22:31;;;;;;;3.70;3.40;;;;;;;15.14;100.00;96867.31;4976991;28;20226;-64
2023/08/09 08:24:58;;;;;;;3.50;3.30;;;;;;;15.21;100.00;96867.25;4972364;28;20213;-64
2023/08/09 08:27:26;;;;;;;4.17;3.77;;;;;;;15.26;100.00;96870.06;4978846;28;20201;-64
2023/08/09 08:29:55;;;;;;;5.00;3.97;;;;;;;15.13;100.00;96871.00;4969340;28;20210;-67
2023/08/09 08:32:22;;;;;;;3.53;3.33;;;;;;;14.92;100.00;96873.03;4973918;28;20316;-64
2023/08/09 08:34:56;;;;;;;5.37;4.83;;;;;;;14.83;100.00;96879.69;4915585;28;20218;-66
2023/08/09 08:37:24;;;;;;;3.50;3.30;;;;;;;14.88;100.00;96879.84;4973660;28;20408;-66
2023/08/09 08:39:52;;;;;;;4.47;3.50;;;;;;;14.96;100.00;96876.91;4966356;28;20285;-66
2023/08/09 08:42:19;;;;;;;4.03;3.67;;;;;;;15.16;100.00;96876.72;4976676;28;20293;-64
2023/08/09 08:44:47;;;;;;;3.50;3.20;;;;;;;15.37;100.00;96888.00;4971804;28;20320;-65
2023/08/09 08:47:16;;;;;;;3.93;3.30;;;;;;;15.46;100.00;96878.66;4976556;28;20336;-64
2023/08/09 08:49:48;;;;;;;3.40;3.20;;;;;;;15.40;100.00;96870.75;4888673;28;20802;-65
2023/08/09 08:52:19;;;;;;;3.67;3.37;;;;;;;15.61;100.00;96875.59;4969181;28;20398;-65
2023/08/09 08:54:47;;;;;;;3.23;3.03;;;;;;;15.80;100.00;96888.97;4975107;28;20305;-65
2023/08/09 08:57:14;;;;;;;3.10;2.80;;;;;;;15.64;100.00;96877.03;4977768;28;20218;-63
2023/08/09 08:59:42;;;;;;;2.93;2.73;;;;;;;15.81;100.00;96881.75;4974008;28;20393;-65
2023/08/09 09:02:10;;;;;;;3.77;3.03;;;;;;;16.00;100.00;96879.88;4976865;28;20386;-65
2023/08/09 09:04:38;;;;;;;3.23;2.97;;;;;;;16.00;100.00;96893.25;4946448;28;21631;-66
2023/08/09 09:07:07;;;;;;;3.30;3.10;;;;;;;16.39;100.00;96888.38;4963178;28;20387;-64
2023/08/09 09:09:44;;;;;;;7.80;7.10;;;;;;;16.56;100.00;96898.44;4979291;28;20218;-66
2023/08/09 09:12:12;;;;;;;4.43;4.13;;;;;;;16.42;100.00;96890.59;4976424;28;20226;-65
2023/08/09 09:14:40;;;;;;;3.50;3.20;;;;;;;16.18;100.00;96893.22;4980138;28;20210;-65
2023/08/09 09:17:08;;;;;;;3.13;2.83;;;;;;;16.27;100.00;96896.34;4976035;28;20302;-64
2023/08/09 09:19:36;;;;;;;3.30;3.10;;;;;;;16.24;100.00;96893.34;4902674;28;21227;-66
2023/08/09 09:22:08;;;;;;;3.37;3.13;;;;;;;16.23;100.00;96887.16;4951288;28;20213;-66
2023/08/09 09:24:39;;;;;;;3.20;2.90;;;;;;;16.90;100.00;96880.00;4981150;28;20221;-67
2023/08/09 09:27:06;;;;;;;3.00;2.80;;;;;;;17.58;100.00;96869.69;4979753;28;20233;-67
2023/08/09 09:29:34;;;;;;;3.03;2.83;;;;;;;17.59;100.00;96862.47;4979363;28;20202;-66
2023/08/09 09:32:07;;;;;;;2.80;2.60;;;;;;;18.06;100.00;96867.69;4981254;28;20673;-65
2023/08/09 09:34:37;;;;;;;3.27;3.07;;;;;;;17.53;100.00;96832.09;4951743;28;20934;-67
2023/08/09 09:37:04;;;;;;;2.83;2.63;;;;;;;18.09;100.00;96861.06;4961918;28;20217;-67
2023/08/09 09:39:32;;;;;;;2.90;2.57;;;;;;;18.25;100.00;96864.81;4980115;28;20907;-65
2023/08/09 09:42:01;;;;;;;3.30;3.10;;;;;;;18.39;100.00;96862.66;4977741;28;20704;-66
2023/08/09 09:44:29;;;;;;;2.87;2.63;;;;;;;18.65;100.00;96863.06;4978381;28;20269;-67
2023/08/09 09:46:57;;;;;;;2.67;2.47;;;;;;;19.15;100.00;96864.09;4976709;28;20284;-66
2023/08/09 09:49:25;;;;;;;2.97;2.67;;;;;;;19.40;100.00;96862.00;4979646;28;20214;-67
2023/08/09 09:51:55;;;;;;;4.60;2.70;;;;;;;19.81;100.00;96868.72;4979789;28;20329;-64
2023/08/09 09:54:24;;;;;;;2.60;2.50;;;;;;;19.36;100.00;96827.59;4936612;28;20229;-66
2023/08/09 09:56:53;;;;;;;2.40;2.30;;;;;;;19.61;100.00;96865.75;4908156;28;20226;-65
2023/08/09 09:59:22;;;;;;;3.27;3.03;;;;;;;19.63;100.00;96866.31;4980625;28;20257;-65
2023/08/09 10:01:50;;;;;;;2.80;2.60;;;;;;;19.09;100.00;96862.41;4978061;28;20197;-66
2023/08/09 10:04:19;;;;;;;2.43;2.23;;;;;;;19.18;100.00;96857.44;4978998;28;20316;-66
2023/08/09 10:06:48;;;;;;;2.20;2.10;;;;;;;19.05;100.00;96851.34;4977241;28;20206;-65
2023/08/09 10:09:17;;;;;;;2.40;2.03;;;;;;;19.34;100.00;96861.94;4977144;28;20300;-67
2023/08/09 10:11:45;;;;;;;2.33;2.13;;;;;;;19.34;100.00;96847.72;4950275;28;20237;-65
2023/08/09 10:14:15;;;;;;;2.00;1.80;;;;;;;19.28;100.00;96841.47;4985437;28;20229;-63
2023/08/09 10:16:45;;;;;;;2.20;2.00;;;;;;;18.86;100.00;96841.91;4980807;28;20222;-64
2023/08/09 10:19:16;;;;;;;1.90;1.80;;;;;;;18.93;100.00;96847.91;4983181;28;20205;-66
2023/08/09 10:21:44;;;;;;;1.67;1.63;;;;;;;19.19;100.00;96845.63;4923516;28;20216;-65
2023/08/09 10:24:13;;;;;;;1.63;1.53;;;;;;;18.79;100.00;96861.69;4971664;28;20241;-64
2023/08/09 10:26:44;;;;;;;2.13;2.03;;;;;;;18.62;100.00;96847.44;4880271;28;20781;-65
2023/08/09 10:29:13;;;;;;;2.00;1.90;;;;;;;18.87;100.00;96862.34;4978758;28;20197;-64
2023/08/09 10:31:53;;;;;;;2.00;1.90;;;;;;;18.98;100.00;96866.81;4970408;28;20232;-65
2023/08/09 10:34:24;;;;;;;1.80;1.70;;;;;;;19.12;100.00;96858.41;4977078;28;20332;-65
2023/08/09 10:36:54;;;;;;;2.90;2.07;;;;;;;18.67;100.00;96866.31;4881738;28;20340;-65
2023/08/09 10:39:24;;;;;;;3.20;1.63;;;;;;;18.91;100.00;96860.78;4969543;28;20209;-64
2023/08/09 10:42:04;;;;;;;1.70;1.60;;;;;;;19.06;100.00;96847.59;4943806;28;20210;-64
2023/08/09 10:44:44;;;;;;;2.00;1.90;;;;;;;19.29;100.00;96842.25;4978300;28;20985;-64
2023/08/09 10:47:14;;;;;;;2.00;1.90;;;;;;;19.27;100.00;96857.81;4975287;28;20293;-63
2023/08/09 10:50:00;;;;;;;1.90;1.70;;;;;;;19.89;100.00;96854.00;4979396;28;20205;-63
2023/08/09 10:52:34;;;;;;;1.83;1.73;;;;;;;19.58;100.00;96853.66;4972075;28;20316;-64
2023/08/09 10:55:29;;;;;;;2.47;2.07;;;;;;;20.40;100.00;96855.59;4977710;28;20886;-64
2023/08/09 10:57:58;;;;;;;2.00;1.90;;;;;;;20.05;100.00;96852.31;4868809;28;20214;-64
2023/08/09 11:00:28;;;;;;;1.67;1.60;;;;;;;20.24;100.00;96860.81;4978533;28;20211;-65
2023/08/09 11:02:59;;;;;;;1.40;1.40;;;;;;;19.74;100.00;96853.81;4974891;28;20315;-63
2023/08/09 11:05:28;;;;;;;1.80;1.63;;;;;;;19.94;100.00;96850.59;4976782;28;20630;-65
2023/08/09 11:07:59;;;;;;;2.23;1.80;;;;;;;19.97;100.00;96822.41;4928944;28;20210;-64
2023/08/09 11:10:32;;;;;;;1.97;1.70;;;;;;;20.01;100.00;96850.41;4980687;28;20256;-66
2023/08/09 11:13:04;;;;;;;1.80;1.70;;;;;;;19.52;100.00;96836.66;4923558;28;20554;-66
2023/08/09 11:15:32;;;;;;;1.67;1.57;;;;;;;19.29;100.00;96839.56;4977944;28;20197;-64
2023/08/09 11:18:01;;;;;;;1.93;1.60;;;;;;;18.69;100.00;96837.34;4974348;28;20263;-64
2023/08/09 11:20:30;;;;;;;1.93;1.83;;;;;;;18.35;100.00;96845.41;4908049;28;20453;-67
2023/08/09 11:22:59;;;;;;;1.87;1.77;;;;;;;17.85;100.00;96860.31;4930775;28;20225;-66
2023/08/09 11:25:29;;;;;;;2.00;1.90;;;;;;;17.29;100.00;96861.63;4974055;28;20270;-66
2023/08/09 11:27:58;;;;;;;2.60;2.37;;;;;;;16.92;100.00;96857.28;4975236;28;20292;-65
2023/08/09 11:30:29;;;;;;;3.40;2.40;;;;;;;16.92;100.00;96856.47;4966237;28;20206;-67